Time;durP1;ratioP1;P1;durP2;ratioP2;P2;SDS_P1;SDS_P2;PMS_P1;PMS_P2;Temp;Humidity;BMP_temperature;BMP_pressure;BME280_temperature;BME280_humidity;BME280_pressure;Samples;Min_cycle;Max_cycle;Signal;HPM_P1;HPM_P2
2022/07/28 00:00:00;;;;;;;;;;;20.10;50.00;;;;;;5170116;27;19975;-46
2022/07/28 00:02:25;;;;;;;;;;;19.90;49.50;;;;;;5164862;27;20017;-48
2022/07/28 00:04:51;;;;;;;;;;;19.90;49.00;;;;;;5163111;27;19933;-51
2022/07/28 00:07:17;;;;;;;;;;;20.30;51.60;;;;;;5169723;27;20006;-49
2022/07/28 00:09:43;;;;;;;;;;;21.20;51.10;;;;;;5164093;27;20278;-47
2022/07/28 00:12:09;;;;;;;;;;;21.70;49.40;;;;;;5162517;27;19930;-47
2022/07/28 00:14:34;;;;;;;;;;;20.60;50.30;;;;;;5169141;27;19930;-47
2022/07/28 00:17:00;;;;;;;;;;;20.30;49.90;;;;;;5145516;27;20285;-48
2022/07/28 00:19:26;;;;;;;;;;;20.20;49.20;;;;;;5169730;27;19922;-49
2022/07/28 00:21:52;;;;;;;;;;;19.80;49.30;;;;;;5164040;27;19927;-46
2022/07/28 00:24:17;;;;;;;;;;;20.00;50.90;;;;;;5163940;27;20525;-46
2022/07/28 00:26:43;;;;;;;;;;;20.90;51.70;;;;;;5169419;27;19926;-47
2022/07/28 00:29:09;;;;;;;;;;;21.80;49.50;;;;;;5162402;27;20384;-47
2022/07/28 00:31:35;;;;;;;;;;;21.00;50.00;;;;;;5162848;27;20182;-46
2022/07/28 00:34:00;;;;;;;;;;;20.30;49.70;;;;;;5169178;27;19962;-47
2022/07/28 00:36:26;;;;;;;;;;;20.30;49.30;;;;;;5163515;27;19923;-46
2022/07/28 00:38:52;;;;;;;;;;;20.00;49.10;;;;;;5168900;27;19956;-56
2022/07/28 00:41:19;;;;;;;;;;;20.00;48.50;;;;;;5164540;27;19974;-51
2022/07/28 00:43:46;;;;;;;;;;;19.80;50.20;;;;;;5163551;27;20009;-49
2022/07/28 00:46:14;;;;;;;;;;;20.70;51.70;;;;;;5168854;27;19937;-49
2022/07/28 00:48:53;;;;;;;;;;;21.70;49.90;;;;;;5161923;27;20329;-47
2022/07/28 00:51:19;;;;;;;;;;;21.10;49.80;;;;;;5162747;27;19926;-48
2022/07/28 00:53:45;;;;;;;;;;;20.60;49.70;;;;;;5169159;27;19923;-50
2022/07/28 00:56:11;;;;;;;;;;;20.10;49.60;;;;;;5145209;27;19940;-48
2022/07/28 00:58:37;;;;;;;;;;;20.00;49.10;;;;;;5144720;27;19922;-46
2022/07/28 01:01:06;;;;;;;;;;;20.00;48.70;;;;;;5168987;27;19930;-50
2022/07/28 01:03:32;;;;;;;;;;;20.40;51.70;;;;;;5163544;27;20397;-46
2022/07/28 01:05:58;;;;;;;;;;;21.50;50.20;;;;;;5167123;27;20062;-55
2022/07/28 01:08:36;;;;;;;;;;;21.50;49.10;;;;;;5162893;27;19923;-45
2022/07/28 01:11:31;;;;;;;;;;;20.50;50.00;;;;;;5162975;27;19979;-46
2022/07/28 01:14:07;;;;;;;;;;;20.30;49.50;;;;;;5139128;27;20394;-47
2022/07/28 01:16:34;;;;;;;;;;;20.00;49.30;;;;;;5150066;27;20336;-46
2022/07/28 01:19:03;;;;;;;;;;;20.00;48.60;;;;;;5144362;27;20017;-47
2022/07/28 01:21:33;;;;;;;;;;;20.60;51.70;;;;;;5147667;27;19930;-55
2022/07/28 01:24:17;;;;;;;;;;;21.60;50.00;;;;;;5165066;27;19922;-46
2022/07/28 01:26:52;;;;;;;;;;;21.10;49.90;;;;;;5161912;27;20038;-46
2022/07/28 01:29:33;;;;;;;;;;;20.30;50.20;;;;;;5146490;27;19994;-54
2022/07/28 01:32:00;;;;;;;;;;;20.30;49.30;;;;;;5149119;27;20381;-46
2022/07/28 01:34:28;;;;;;;;;;;20.10;49.00;;;;;;5163323;27;19981;-45
2022/07/28 01:36:55;;;;;;;;;;;19.90;48.70;;;;;;5168330;27;19923;-49
2022/07/28 01:39:22;;;;;;;;;;;20.20;51.60;;;;;;5144908;27;19923;-47
2022/07/28 01:41:47;;;;;;;;;;;21.20;50.90;;;;;;5143281;27;20029;-48
2022/07/28 01:44:14;;;;;;;;;;;21.70;49.20;;;;;;5166478;27;20379;-46
2022/07/28 01:46:40;;;;;;;;;;;20.80;49.90;;;;;;5143658;27;19929;-46
2022/07/28 01:49:06;;;;;;;;;;;20.30;49.90;;;;;;5144131;27;19923;-46
2022/07/28 01:51:32;;;;;;;;;;;20.00;49.50;;;;;;5148857;27;19930;-46
2022/07/28 01:53:58;;;;;;;;;;;19.80;49.10;;;;;;5162618;27;20010;-46
2022/07/28 01:56:24;;;;;;;;;;;20.00;50.60;;;;;;5146038;27;19933;-55
2022/07/28 01:58:50;;;;;;;;;;;20.90;51.40;;;;;;5147505;27;19923;-46
2022/07/28 02:01:16;;;;;;;;;;;21.80;49.60;;;;;;5161024;27;19926;-46
2022/07/28 02:03:41;;;;;;;;;;;20.80;50.10;;;;;;5146425;27;19927;-47
2022/07/28 02:06:07;;;;;;;;;;;20.40;49.90;;;;;;5143636;27;19972;-47
2022/07/28 02:08:33;;;;;;;;;;;20.30;49.30;;;;;;5143654;27;19922;-47
2022/07/28 02:13:44;;;;;;;;;;;19.90;48.70;;;;;;5146463;27;19933;-49
2022/07/28 02:16:10;;;;;;;;;;;20.10;51.40;;;;;;5143633;27;19927;-47
2022/07/28 02:18:36;;;;;;;;;;;21.10;51.20;;;;;;5167114;27;20418;-47
2022/07/28 02:21:02;;;;;;;;;;;21.80;49.20;;;;;;5141691;27;19926;-47
2022/07/28 02:23:28;;;;;;;;;;;20.80;49.90;;;;;;5146038;27;20428;-56
2022/07/28 02:25:54;;;;;;;;;;;20.30;49.80;;;;;;5146111;27;20082;-47
2022/07/28 02:28:20;;;;;;;;;;;20.00;49.60;;;;;;5141903;27;20009;-47
2022/07/28 02:30:46;;;;;;;;;;;19.80;49.40;;;;;;5131709;27;19923;-47
2022/07/28 02:33:14;;;;;;;;;;;19.90;50.90;;;;;;5161784;27;19933;-48
2022/07/28 02:35:52;;;;;;;;;;;20.80;51.60;;;;;;5143312;27;19929;-46
2022/07/28 02:38:25;;;;;;;;;;;21.80;49.70;;;;;;5147175;27;19923;-48
2022/07/28 02:40:52;;;;;;;;;;;20.80;50.20;;;;;;5161119;27;20018;-48
2022/07/28 02:43:19;;;;;;;;;;;20.20;50.10;;;;;;5143024;27;20041;-47
2022/07/28 02:45:46;;;;;;;;;;;20.20;49.20;;;;;;5148781;27;19927;-45
2022/07/28 02:48:14;;;;;;;;;;;20.00;49.00;;;;;;5161932;27;19938;-48
2022/07/28 02:50:40;;;;;;;;;;;19.80;48.70;;;;;;5162314;27;20316;-53
2022/07/28 02:53:05;;;;;;;;;;;19.90;51.60;;;;;;5148585;27;19923;-49
2022/07/28 02:55:31;;;;;;;;;;;21.00;51.20;;;;;;5142442;27;19931;-49
2022/07/28 02:57:57;;;;;;;;;;;21.80;49.20;;;;;;5146599;27;19934;-49
2022/07/28 03:00:23;;;;;;;;;;;20.80;49.90;;;;;;5161246;27;20378;-46
2022/07/28 03:02:49;;;;;;;;;;;20.30;49.70;;;;;;5161493;27;20026;-48
2022/07/28 03:05:16;;;;;;;;;;;20.00;49.30;;;;;;5167015;27;20396;-46
2022/07/28 03:07:42;;;;;;;;;;;20.00;48.70;;;;;;5143067;27;20014;-47
2022/07/28 03:10:08;;;;;;;;;;;19.60;50.00;;;;;;5161348;27;19935;-48
2022/07/28 03:12:34;;;;;;;;;;;20.60;51.70;;;;;;5167020;27;20009;-48
2022/07/28 03:14:59;;;;;;;;;;;21.50;50.00;;;;;;5160070;27;20271;-47
2022/07/28 03:17:26;;;;;;;;;;;21.50;49.10;;;;;;5165956;27;19930;-47
2022/07/28 03:19:51;;;;;;;;;;;20.50;49.70;;;;;;5161388;27;20017;-47
2022/07/28 03:22:17;;;;;;;;;;;20.10;49.60;;;;;;5161603;27;19946;-46
2022/07/28 03:24:44;;;;;;;;;;;19.90;49.10;;;;;;5167120;27;20395;-47
2022/07/28 03:27:18;;;;;;;;;;;19.80;48.70;;;;;;5142660;27;19923;-49
2022/07/28 03:29:45;;;;;;;;;;;20.30;51.70;;;;;;5161129;27;19981;-48
2022/07/28 03:32:11;;;;;;;;;;;21.50;49.90;;;;;;5146661;27;19923;-48
2022/07/28 03:34:36;;;;;;;;;;;21.20;49.20;;;;;;5159652;27;19938;-49
2022/07/28 03:37:04;;;;;;;;;;;20.50;49.50;;;;;;5162875;27;19930;-55
2022/07/28 03:39:30;;;;;;;;;;;20.10;49.40;;;;;;5168437;27;20336;-46
2022/07/28 03:41:57;;;;;;;;;;;20.20;48.60;;;;;;5146143;27;19926;-47
2022/07/28 03:44:23;;;;;;;;;;;19.80;48.70;;;;;;5170282;27;19930;-50
2022/07/28 03:46:49;;;;;;;;;;;20.30;51.30;;;;;;5145939;27;19926;-46
2022/07/28 03:49:14;;;;;;;;;;;21.30;50.30;;;;;;5164901;27;19923;-46
2022/07/28 03:51:40;;;;;;;;;;;21.60;48.90;;;;;;5168553;27;19943;-47
2022/07/28 03:54:06;;;;;;;;;;;20.70;49.50;;;;;;5163681;27;19923;-47
2022/07/28 03:56:32;;;;;;;;;;;20.30;49.40;;;;;;5164368;27;19923;-45
2022/07/28 03:58:57;;;;;;;;;;;19.90;49.30;;;;;;5170071;27;19923;-45
2022/07/28 04:01:23;;;;;;;;;;;19.80;48.70;;;;;;5164705;27;19923;-47
2022/07/28 04:03:49;;;;;;;;;;;20.10;51.20;;;;;;5169747;27;19926;-48
2022/07/28 04:06:15;;;;;;;;;;;21.00;50.90;;;;;;5164028;27;19965;-48
2022/07/28 04:08:41;;;;;;;;;;;21.70;48.80;;;;;;5164062;27;19923;-50
2022/07/28 04:11:07;;;;;;;;;;;20.70;49.60;;;;;;5168111;27;19923;-48
2022/07/28 04:13:35;;;;;;;;;;;20.30;49.40;;;;;;5163811;27;19922;-48
2022/07/28 04:16:01;;;;;;;;;;;20.10;48.80;;;;;;5164258;27;19928;-48
2022/07/28 04:18:27;;;;;;;;;;;19.90;48.50;;;;;;5151042;27;20377;-48
2022/07/28 04:20:53;;;;;;;;;;;19.70;48.80;;;;;;5164218;27;19929;-49
2022/07/28 04:23:19;;;;;;;;;;;20.50;51.40;;;;;;5169419;27;19922;-46
2022/07/28 04:25:45;;;;;;;;;;;21.50;49.60;;;;;;5164101;27;19922;-45
2022/07/28 04:28:11;;;;;;;;;;;21.30;48.90;;;;;;5162745;27;19933;-51
2022/07/28 04:30:37;;;;;;;;;;;20.30;49.80;;;;;;5168228;27;19926;-49
2022/07/28 04:33:02;;;;;;;;;;;20.00;49.30;;;;;;5163656;27;19971;-46
2022/07/28 04:35:28;;;;;;;;;;;19.90;48.70;;;;;;5163916;27;20188;-45
2022/07/28 04:37:57;;;;;;;;;;;19.80;49.30;;;;;;5169670;27;19929;-46
2022/07/28 04:40:23;;;;;;;;;;;20.50;51.30;;;;;;5163545;27;20025;-48
2022/07/28 04:42:49;;;;;;;;;;;21.60;49.30;;;;;;5166633;27;20953;-54
2022/07/28 04:45:15;;;;;;;;;;;21.10;49.00;;;;;;5166262;27;19953;-50
2022/07/28 04:47:40;;;;;;;;;;;20.60;49.10;;;;;;5161790;27;19923;-50
2022/07/28 04:50:07;;;;;;;;;;;20.00;49.20;;;;;;5148773;27;19923;-48
2022/07/28 04:52:32;;;;;;;;;;;19.90;49.00;;;;;;5143946;27;19930;-49
2022/07/28 04:54:58;;;;;;;;;;;19.70;48.60;;;;;;5163677;27;19923;-46
2022/07/28 04:57:27;;;;;;;;;;;20.30;51.30;;;;;;5169160;27;19977;-46
2022/07/28 04:59:53;;;;;;;;;;;21.30;49.80;;;;;;5163502;27;20001;-51
2022/07/28 05:02:19;;;;;;;;;;;21.30;48.80;;;;;;5163481;27;19927;-46
2022/07/28 05:04:45;;;;;;;;;;;20.40;49.60;;;;;;5167948;27;20366;-48
2022/07/28 05:07:11;;;;;;;;;;;20.20;49.30;;;;;;5162254;27;20886;-47
2022/07/28 05:09:36;;;;;;;;;;;19.80;49.10;;;;;;5168690;27;20427;-46
2022/07/28 05:12:04;;;;;;;;;;;19.70;48.60;;;;;;5163544;27;19923;-48
2022/07/28 05:14:30;;;;;;;;;;;20.30;51.50;;;;;;5163459;27;20425;-47
2022/07/28 05:16:56;;;;;;;;;;;21.30;50.00;;;;;;5168625;27;20004;-47
2022/07/28 05:19:22;;;;;;;;;;;21.40;48.70;;;;;;5163012;27;20013;-46
2022/07/28 05:21:47;;;;;;;;;;;20.40;49.70;;;;;;5163262;27;20184;-47
2022/07/28 05:24:13;;;;;;;;;;;20.00;49.50;;;;;;5167225;27;20305;-47
2022/07/28 05:26:39;;;;;;;;;;;19.90;48.80;;;;;;5162413;27;19927;-50
2022/07/28 05:29:05;;;;;;;;;;;19.60;49.10;;;;;;5168351;27;19977;-48
2022/07/28 05:31:31;;;;;;;;;;;20.30;51.70;;;;;;5163124;27;20339;-50
2022/07/28 05:33:56;;;;;;;;;;;21.30;50.10;;;;;;5144407;27;19962;-48
2022/07/28 05:36:22;;;;;;;;;;;21.50;48.80;;;;;;5168109;27;20281;-54
2022/07/28 05:38:48;;;;;;;;;;;20.50;49.80;;;;;;5162924;27;19942;-47
2022/07/28 05:41:14;;;;;;;;;;;20.30;49.40;;;;;;5161850;27;20688;-48
2022/07/28 05:43:39;;;;;;;;;;;20.10;48.80;;;;;;5148411;27;20374;-48
2022/07/28 05:46:05;;;;;;;;;;;19.90;48.70;;;;;;5142534;27;19959;-48
2022/07/28 05:48:31;;;;;;;;;;;20.50;51.50;;;;;;5149430;27;19926;-50
2022/07/28 05:50:57;;;;;;;;;;;21.50;49.80;;;;;;5163149;27;19923;-50
2022/07/28 05:53:23;;;;;;;;;;;21.10;49.50;;;;;;5162776;27;19930;-47
2022/07/28 05:55:48;;;;;;;;;;;20.40;49.70;;;;;;5168228;27;19930;-47
2022/07/28 05:58:14;;;;;;;;;;;20.30;49.10;;;;;;5162550;27;20396;-46
2022/07/28 06:00:40;;;;;;;;;;;19.90;49.00;;;;;;5161093;27;20549;-46
2022/07/28 06:03:06;;;;;;;;;;;19.80;48.60;;;;;;5165861;27;19933;-48
2022/07/28 06:05:32;;;;;;;;;;;19.90;50.90;;;;;;5162287;27;20603;-50
2022/07/28 06:07:58;;;;;;;;;;;20.90;51.20;;;;;;5165762;27;19929;-53
2022/07/28 06:10:24;;;;;;;;;;;21.80;49.30;;;;;;5165125;27;19962;-47
2022/07/28 06:12:54;;;;;;;;;;;20.90;49.70;;;;;;5162413;27;20021;-49
2022/07/28 06:15:20;;;;;;;;;;;20.40;49.70;;;;;;5167663;27;20497;-47
2022/07/28 06:17:46;;;;;;;;;;;20.10;49.40;;;;;;5161501;27;19929;-48
2022/07/28 06:20:12;;;;;;;;;;;20.00;49.00;;;;;;5160341;27;20362;-47
2022/07/28 06:22:42;;;;;;;;;;;19.80;48.90;;;;;;5167218;27;19923;-46
2022/07/28 06:25:10;;;;;;;;;;;20.30;51.60;;;;;;5162437;27;19927;-47
2022/07/28 06:27:36;;;;;;;;;;;21.30;50.80;;;;;;5162254;27;20041;-48
2022/07/28 06:30:02;;;;;;;;;;;21.70;49.20;;;;;;5167263;27;19949;-46
2022/07/28 06:32:28;;;;;;;;;;;20.60;50.10;;;;;;5161883;27;19951;-49
2022/07/28 06:34:54;;;;;;;;;;;20.30;49.50;;;;;;5167411;27;19923;-47
2022/07/28 06:37:20;;;;;;;;;;;20.00;49.30;;;;;;5141703;27;20351;-48
2022/07/28 06:39:46;;;;;;;;;;;19.80;49.10;;;;;;5160855;27;19923;-48
2022/07/28 06:42:11;;;;;;;;;;;19.90;50.30;;;;;;5167351;27;19961;-47
2022/07/28 06:44:37;;;;;;;;;;;20.80;51.90;;;;;;5161907;27;19948;-47
2022/07/28 06:47:03;;;;;;;;;;;21.70;50.10;;;;;;5161926;27;19951;-50
2022/07/28 06:49:29;;;;;;;;;;;21.00;49.90;;;;;;5166950;27;19927;-47
2022/07/28 06:51:54;;;;;;;;;;;20.30;50.40;;;;;;5161740;27;19930;-49
2022/07/28 06:54:20;;;;;;;;;;;20.10;49.80;;;;;;5166431;27;20386;-54
2022/07/28 06:56:46;;;;;;;;;;;19.90;49.40;;;;;;5160652;27;20320;-49
2022/07/28 06:59:14;;;;;;;;;;;19.90;49.10;;;;;;5161459;27;19962;-48
2022/07/28 07:01:39;;;;;;;;;;;19.90;50.70;;;;;;5167037;27;20014;-46
2022/07/28 07:04:07;;;;;;;;;;;20.80;52.30;;;;;;5161525;27;20176;-47
2022/07/28 07:06:32;;;;;;;;;;;21.80;50.60;;;;;;5161403;27;19930;-46
2022/07/28 07:08:58;;;;;;;;;;;20.90;51.00;;;;;;5166603;27;19930;-47
2022/07/28 07:11:25;;;;;;;;;;;20.40;50.50;;;;;;5140921;27;20014;-47
2022/07/28 07:13:51;;;;;;;;;;;20.10;50.00;;;;;;5163211;27;20467;-52
2022/07/28 07:16:17;;;;;;;;;;;19.90;49.90;;;;;;5168698;27;19926;-46
2022/07/28 07:18:43;;;;;;;;;;;19.90;49.10;;;;;;5164954;27;20013;-46
2022/07/28 07:21:09;;;;;;;;;;;19.80;50.00;;;;;;5152031;27;19985;-46
2022/07/28 07:23:35;;;;;;;;;;;20.60;52.70;;;;;;5164880;27;20600;-50
2022/07/28 07:26:01;;;;;;;;;;;21.60;51.40;;;;;;5164654;27;20024;-51
2022/07/28 07:28:27;;;;;;;;;;;21.10;51.00;;;;;;5151615;27;19923;-48
2022/07/28 07:30:53;;;;;;;;;;;20.50;50.90;;;;;;5164284;27;20369;-54
2022/07/28 07:33:18;;;;;;;;;;;20.30;50.20;;;;;;5163353;27;19923;-49
2022/07/28 07:35:44;;;;;;;;;;;20.00;50.00;;;;;;5169803;27;19922;-46
2022/07/28 07:38:10;;;;;;;;;;;19.90;49.60;;;;;;5164829;27;19927;-46
2022/07/28 07:40:36;;;;;;;;;;;19.80;50.00;;;;;;5170295;27;19979;-47
2022/07/28 07:43:03;;;;;;;;;;;20.50;53.20;;;;;;5164809;27;20043;-47
2022/07/28 07:45:28;;;;;;;;;;;21.30;52.40;;;;;;5164679;27;20481;-50
2022/07/28 07:47:54;;;;;;;;;;;21.50;51.00;;;;;;5170158;27;20017;-50
2022/07/28 07:50:20;;;;;;;;;;;20.40;51.40;;;;;;5144219;27;19923;-48
2022/07/28 07:52:48;;;;;;;;;;;20.20;50.70;;;;;;5143344;27;19958;-47
2022/07/28 07:55:14;;;;;;;;;;;19.90;50.20;;;;;;5169872;27;19926;-48
2022/07/28 07:57:40;;;;;;;;;;;19.90;50.00;;;;;;5164488;27;19922;-45
2022/07/28 08:00:06;;;;;;;;;;;19.90;49.30;;;;;;5151664;27;20400;-47
2022/07/28 08:02:32;;;;;;;;;;;20.20;52.70;;;;;;5164184;27;19971;-48
2022/07/28 08:04:59;;;;;;;;;;;21.20;53.20;;;;;;5164117;27;19923;-47
2022/07/28 08:07:25;;;;;;;;;;;21.80;51.50;;;;;;5169472;27;19927;-46
2022/07/28 08:09:50;;;;;;;;;;;20.90;51.50;;;;;;5162667;27;19926;-49
2022/07/28 08:12:16;;;;;;;;;;;20.40;51.10;;;;;;5163713;27;19953;-47
2022/07/28 08:14:42;;;;;;;;;;;20.10;50.50;;;;;;5169627;27;19923;-47
2022/07/28 08:17:08;;;;;;;;;;;20.00;50.00;;;;;;5164400;27;20402;-47
2022/07/28 08:19:34;;;;;;;;;;;19.80;50.30;;;;;;5168035;27;19923;-53
2022/07/28 08:22:00;;;;;;;;;;;20.60;54.00;;;;;;5166009;27;19923;-45
2022/07/28 08:24:25;;;;;;;;;;;21.50;53.10;;;;;;5163148;27;19966;-45
2022/07/28 08:26:51;;;;;;;;;;;21.30;51.80;;;;;;5168022;27;19927;-46
2022/07/28 08:29:17;;;;;;;;;;;20.60;51.80;;;;;;5162397;27;19927;-50
2022/07/28 08:31:43;;;;;;;;;;;20.40;51.20;;;;;;5163596;27;19970;-47
2022/07/28 08:34:09;;;;;;;;;;;20.20;50.60;;;;;;5169264;27;20289;-48
2022/07/28 08:36:34;;;;;;;;;;;19.80;50.60;;;;;;5164126;27;19929;-48
2022/07/28 08:39:00;;;;;;;;;;;19.90;49.60;;;;;;5164962;27;19923;-55
2022/07/28 08:41:30;;;;;;;;;;;20.00;50.30;;;;;;5168049;27;20779;-46
2022/07/28 08:43:56;;;;;;;;;;;20.50;54.40;;;;;;5163644;27;19923;-47
2022/07/28 08:46:22;;;;;;;;;;;21.50;53.70;;;;;;5167468;27;20057;-51
2022/07/28 08:48:48;;;;;;;;;;;21.40;52.30;;;;;;5144270;27;19923;-48
2022/07/28 08:51:14;;;;;;;;;;;20.80;52.10;;;;;;5163680;27;20366;-49
2022/07/28 08:53:39;;;;;;;;;;;20.40;51.60;;;;;;5150816;27;19930;-46
2022/07/28 08:56:06;;;;;;;;;;;20.20;51.20;;;;;;5142997;27;20339;-47
2022/07/28 08:58:32;;;;;;;;;;;20.10;50.50;;;;;;5144545;27;19974;-49
2022/07/28 09:00:58;;;;;;;;;;;20.00;50.00;;;;;;5168755;27;19927;-46
2022/07/28 09:03:24;;;;;;;;;;;19.90;50.10;;;;;;5142388;27;19923;-49
2022/07/28 09:05:50;;;;;;;;;;;20.50;54.80;;;;;;5167305;27;19930;-47
2022/07/28 09:08:17;;;;;;;;;;;21.30;54.60;;;;;;5162848;27;19933;-51
2022/07/28 09:10:43;;;;;;;;;;;21.50;52.80;;;;;;5163519;27;20326;-46
2022/07/28 09:13:09;;;;;;;;;;;20.80;52.70;;;;;;5169159;27;19929;-45
2022/07/28 09:15:36;;;;;;;;;;;20.40;51.90;;;;;;5163260;27;19923;-45
2022/07/28 09:18:02;;;;;;;;;;;20.20;51.70;;;;;;5163057;27;20172;-46
2022/07/28 09:20:28;;;;;;;;;;;20.20;50.70;;;;;;5148845;27;19962;-46
2022/07/28 09:22:55;;;;;;;;;;;20.10;50.40;;;;;;5161298;27;19991;-47
2022/07/28 09:25:21;;;;;;;;;;;19.80;50.90;;;;;;5166366;27;19922;-56
2022/07/28 09:27:47;;;;;;;;;;;20.60;55.10;;;;;;5164798;27;20374;-48
2022/07/28 09:30:13;;;;;;;;;;;21.40;54.90;;;;;;5163087;27;20366;-47
2022/07/28 09:32:38;;;;;;;;;;;21.50;53.40;;;;;;5168671;27;19927;-46
2022/07/28 09:35:16;;;;;;;;;;;20.80;52.80;;;;;;5162579;27;19926;-47
2022/07/28 09:37:45;;;;;;;;;;;20.40;52.50;;;;;;5162665;27;19927;-49
2022/07/28 09:40:11;;;;;;;;;;;20.40;51.30;;;;;;5167414;27;20029;-47
2022/07/28 09:42:46;;;;;;;;;;;20.20;51.00;;;;;;5161503;27;19929;-46
2022/07/28 09:45:12;;;;;;;;;;;20.10;50.60;;;;;;5162751;27;19923;-51
2022/07/28 09:47:39;;;;;;;;;;;20.00;50.60;;;;;;5164291;27;19991;-47
2022/07/28 09:50:05;;;;;;;;;;;19.80;50.80;;;;;;5162692;27;19926;-47
2022/07/28 09:52:32;;;;;;;;;;;20.30;54.50;;;;;;5164954;27;19926;-53
2022/07/28 09:55:08;;;;;;;;;;;21.20;55.80;;;;;;5166270;27;19927;-45
2022/07/28 09:57:35;;;;;;;;;;;21.80;54.30;;;;;;5162395;27;19937;-50
2022/07/28 10:00:01;;;;;;;;;;;21.00;53.20;;;;;;5166585;27;19922;-46
2022/07/28 10:02:28;;;;;;;;;;;20.30;53.20;;;;;;5161943;27;20338;-46
2022/07/28 10:04:54;;;;;;;;;;;20.60;51.50;;;;;;5162364;27;19929;-46
2022/07/28 10:07:20;;;;;;;;;;;20.40;51.30;;;;;;5168010;27;20025;-46
2022/07/28 10:09:58;;;;;;;;;;;20.10;50.90;;;;;;5162164;27;20421;-45
2022/07/28 10:12:24;;;;;;;;;;;19.90;51.20;;;;;;5162087;27;19929;-47
2022/07/28 10:14:51;;;;;;;;;;;20.00;50.40;;;;;;5167649;27;20022;-46
2022/07/28 10:17:24;;;;;;;;;;;20.30;54.60;;;;;;5160777;27;19971;-50
2022/07/28 10:19:51;;;;;;;;;;;21.10;56.10;;;;;;5161007;27;20168;-46
2022/07/28 10:22:17;;;;;;;;;;;21.80;54.60;;;;;;5167452;27;19922;-51
2022/07/28 10:24:43;;;;;;;;;;;20.80;54.10;;;;;;5161977;27;19933;-47
2022/07/28 10:27:09;;;;;;;;;;;20.70;52.80;;;;;;5167882;27;19931;-47
2022/07/28 10:29:34;;;;;;;;;;;20.30;52.20;;;;;;5161800;27;19923;-47
2022/07/28 10:32:03;;;;;;;;;;;20.20;51.80;;;;;;5141761;27;20366;-46
2022/07/28 10:34:32;;;;;;;;;;;20.20;51.20;;;;;;5167199;27;19929;-51
2022/07/28 10:36:59;;;;;;;;;;;20.10;51.00;;;;;;5160526;27;19926;-49
2022/07/28 10:39:27;;;;;;;;;;;20.00;51.90;;;;;;5161518;27;20018;-47
2022/07/28 10:41:53;;;;;;;;;;;20.70;56.20;;;;;;5167463;27;19937;-46
2022/07/28 10:44:19;;;;;;;;;;;21.50;56.20;;;;;;5162211;27;20366;-49
2022/07/28 10:46:45;;;;;;;;;;;21.30;54.70;;;;;;5144731;27;19922;-54
2022/07/28 10:49:11;;;;;;;;;;;20.80;53.80;;;;;;5146253;27;20381;-49
2022/07/28 10:51:38;;;;;;;;;;;20.40;53.00;;;;;;5143175;27;19926;-46
2022/07/28 10:54:10;;;;;;;;;;;20.50;51.90;;;;;;5165716;27;20001;-49
2022/07/28 10:56:47;;;;;;;;;;;20.20;51.70;;;;;;5160333;27;19986;-47
2022/07/28 10:59:39;;;;;;;;;;;20.10;51.70;;;;;;5142727;27;19929;-48
2022/07/28 11:02:05;;;;;;;;;;;20.20;51.00;;;;;;5126666;27;19927;-53
2022/07/28 11:04:51;;;;;;;;;;;19.90;50.90;;;;;;5162338;27;19948;-48
2022/07/28 11:07:16;;;;;;;;;;;19.80;51.10;;;;;;5161497;27;19929;-46
2022/07/28 11:09:46;;;;;;;;;;;20.50;56.30;;;;;;5166038;27;21300;-47
2022/07/28 11:12:14;;;;;;;;;;;21.30;56.80;;;;;;5160238;27;19940;-48
2022/07/28 11:14:40;;;;;;;;;;;21.80;55.20;;;;;;5140651;27;19927;-46
2022/07/28 11:17:05;;;;;;;;;;;21.10;53.90;;;;;;5166752;27;19926;-46
2022/07/28 11:19:43;;;;;;;;;;;20.80;52.90;;;;;;5161540;27;19927;-46
2022/07/28 11:22:20;;;;;;;;;;;20.50;52.40;;;;;;5161608;27;20427;-45
2022/07/28 11:25:01;;;;;;;;;;;20.30;52.10;;;;;;5166630;27;19974;-48
2022/07/28 11:27:39;;;;;;;;;;;20.20;51.50;;;;;;5161026;27;19926;-46
2022/07/28 11:30:08;;;;;;;;;;;20.00;51.40;;;;;;5160286;27;19922;-46
2022/07/28 11:33:03;;;;;;;;;;;19.90;51.10;;;;;;5165100;27;20366;-45
2022/07/28 11:35:30;;;;;;;;;;;20.00;50.90;;;;;;5139769;27;19959;-47
2022/07/28 11:38:01;;;;;;;;;;;20.50;55.80;;;;;;5161178;27;19970;-48
2022/07/28 11:40:43;;;;;;;;;;;21.30;57.10;;;;;;5166663;27;20366;-46
2022/07/28 11:43:28;;;;;;;;;;;21.90;55.50;;;;;;5160847;27;20013;-46
2022/07/28 11:45:59;;;;;;;;;;;21.20;53.90;;;;;;5160859;27;19926;-45
2022/07/28 11:48:25;;;;;;;;;;;20.80;53.00;;;;;;5165582;27;20433;-46
2022/07/28 11:51:03;;;;;;;;;;;20.50;52.30;;;;;;5159426;27;20021;-50
2022/07/28 11:53:32;;;;;;;;;;;20.30;52.00;;;;;;5160728;27;19923;-46
2022/07/28 11:55:57;;;;;;;;;;;20.30;51.30;;;;;;5166347;27;19929;-45
2022/07/28 11:58:24;;;;;;;;;;;20.10;51.60;;;;;;5161205;27;19923;-51
2022/07/28 12:00:49;;;;;;;;;;;20.20;51.20;;;;;;5162864;27;19973;-47
2022/07/28 12:03:31;;;;;;;;;;;20.20;50.80;;;;;;5169642;27;19922;-48
2022/07/28 12:05:57;;;;;;;;;;;20.10;50.80;;;;;;5164262;27;19926;-50
2022/07/28 12:08:23;;;;;;;;;;;19.80;50.90;;;;;;5162910;27;19933;-50
2022/07/28 12:10:48;;;;;;;;;;;20.50;55.20;;;;;;5168845;27;20374;-50
2022/07/28 12:13:14;;;;;;;;;;;21.30;56.40;;;;;;5144638;27;19923;-49
2022/07/28 12:15:40;;;;;;;;;;;21.80;55.30;;;;;;5148083;27;19923;-54
2022/07/28 12:18:09;;;;;;;;;;;21.20;54.00;;;;;;5147293;27;19926;-46
2022/07/28 12:20:34;;;;;;;;;;;20.70;53.20;;;;;;5145379;27;19923;-46
2022/07/28 12:23:01;;;;;;;;;;;20.60;52.20;;;;;;5149815;27;19991;-47
2022/07/28 12:25:27;;;;;;;;;;;20.40;52.00;;;;;;5163104;27;19931;-47
2022/07/28 12:27:53;;;;;;;;;;;20.30;51.70;;;;;;5162701;27;19934;-47
2022/07/28 12:30:23;;;;;;;;;;;20.30;51.40;;;;;;5149755;27;19937;-45
2022/07/28 12:32:48;;;;;;;;;;;20.30;50.80;;;;;;5163852;27;19931;-47
2022/07/28 12:35:14;;;;;;;;;;;20.10;51.00;;;;;;5164197;27;19966;-46
2022/07/28 12:37:42;;;;;;;;;;;20.10;52.90;;;;;;5169341;27;20374;-46
2022/07/28 12:40:11;;;;;;;;;;;20.80;56.30;;;;;;5145457;27;19944;-46
2022/07/28 12:42:37;;;;;;;;;;;21.70;56.00;;;;;;5150929;27;19922;-46
2022/07/28 12:45:05;;;;;;;;;;;21.40;54.50;;;;;;5162068;27;20077;-49
2022/07/28 12:47:31;;;;;;;;;;;20.90;53.00;;;;;;5162863;27;19927;-49
2022/07/28 12:50:07;;;;;;;;;;;20.70;52.30;;;;;;5169075;27;20086;-49
2022/07/28 12:52:32;;;;;;;;;;;20.30;51.90;;;;;;5163732;27;20009;-46
2022/07/28 12:54:58;;;;;;;;;;;20.50;51.10;;;;;;5163518;27;19930;-47
2022/07/28 12:57:39;;;;;;;;;;;20.30;51.30;;;;;;5149948;27;19934;-49
2022/07/28 13:00:06;;;;;;;;;;;20.10;51.00;;;;;;5163479;27;19923;-47
2022/07/28 13:02:35;;;;;;;;;;;20.10;50.60;;;;;;5162156;27;20009;-51
2022/07/28 13:05:01;;;;;;;;;;;20.00;50.40;;;;;;5167816;27;19929;-47
2022/07/28 13:07:29;;;;;;;;;;;20.00;51.30;;;;;;5163394;27;20366;-50
2022/07/28 13:10:05;;;;;;;;;;;20.70;55.70;;;;;;5166046;27;20022;-52
2022/07/28 13:12:31;;;;;;;;;;;21.50;55.50;;;;;;5168424;27;19922;-46
2022/07/28 13:14:57;;;;;;;;;;;21.50;54.00;;;;;;5163021;27;19922;-46
2022/07/28 13:17:24;;;;;;;;;;;20.80;53.40;;;;;;5149901;27;19949;-45
2022/07/28 13:19:49;;;;;;;;;;;20.70;52.20;;;;;;5162780;27;19983;-48
2022/07/28 13:22:27;;;;;;;;;;;20.60;51.60;;;;;;5161258;27;20385;-47
2022/07/28 13:24:55;;;;;;;;;;;20.50;51.20;;;;;;5149302;27;19977;-46
2022/07/28 13:27:21;;;;;;;;;;;20.30;50.90;;;;;;5162839;27;19973;-46
2022/07/28 13:29:47;;;;;;;;;;;20.20;50.70;;;;;;5163214;27;19922;-46
2022/07/28 13:32:13;;;;;;;;;;;20.30;50.50;;;;;;5149929;27;20396;-46
2022/07/28 13:34:40;;;;;;;;;;;20.00;50.70;;;;;;5162801;27;19936;-48
2022/07/28 13:37:06;;;;;;;;;;;20.10;50.30;;;;;;5163192;27;19937;-55
2022/07/28 13:39:32;;;;;;;;;;;20.20;53.70;;;;;;5166941;27;19962;-51
2022/07/28 13:41:58;;;;;;;;;;;21.00;55.70;;;;;;5161846;27;20388;-47
2022/07/28 13:44:25;;;;;;;;;;;21.80;55.00;;;;;;5168062;27;20308;-46
2022/07/28 13:46:51;;;;;;;;;;;21.20;53.60;;;;;;5163228;27;19987;-47
2022/07/28 13:49:16;;;;;;;;;;;20.80;52.70;;;;;;5144160;27;20429;-48
2022/07/28 13:51:42;;;;;;;;;;;20.70;52.00;;;;;;5167897;27;19970;-46
2022/07/28 13:54:08;;;;;;;;;;;20.70;51.20;;;;;;5162540;27;20367;-48
2022/07/28 13:56:38;;;;;;;;;;;20.30;51.10;;;;;;5162689;27;19933;-47
2022/07/28 13:59:04;;;;;;;;;;;20.30;50.80;;;;;;5166395;27;19929;-46
2022/07/28 14:01:30;;;;;;;;;;;20.30;50.80;;;;;;5161670;27;20270;-46
2022/07/28 14:03:56;;;;;;;;;;;20.30;50.30;;;;;;5167760;27;19929;-48
2022/07/28 14:06:21;;;;;;;;;;;20.30;50.20;;;;;;5162534;27;19934;-46
2022/07/28 14:08:47;;;;;;;;;;;20.00;50.80;;;;;;5141395;27;19963;-46
2022/07/28 14:11:14;;;;;;;;;;;20.10;50.20;;;;;;5167666;27;20274;-48
2022/07/28 14:13:40;;;;;;;;;;;20.80;54.00;;;;;;5162388;27;20016;-47
2022/07/28 14:16:06;;;;;;;;;;;21.50;54.90;;;;;;5161111;27;20555;-48
2022/07/28 14:18:32;;;;;;;;;;;21.80;54.00;;;;;;5166726;27;19930;-45